首页
METAR-TAF:

METAR-TAF

机场 :

弗洛里亚诺波利斯, 圣卡塔琳娜州, 巴西

纬度: 27-40S, 经度: 048-33W, 海拔: 5米

当前天气观测

该预报发布于31分钟前的15:00 UTC
风速7节,风向西南
温度 20°C
湿度 60%
气压 1027 hPa
能见度10公里或以上
1500米以下无云,无积雨云

METAR: SBFL 161500Z 22007KT CAVOK 20/12 Q1027

时间: 12:31 (15:31 UTC)

预报

该预报发布于6小时和31分钟前的09:00 UTC
预报有效从16日的 12点(UTC)到 17日的 12点(UTC)
风速7节,风向南转西南
能见度10公里或以上
散云层高于3500英尺
成为
从 16日的 12点(UTC)到 16日的 14点(UTC)
风速8节,风向南转南东
散云层高于4000英尺
成为
从 17日的 00点(UTC)到 17日的 02点(UTC)
风速5节,风向南转西南
多云层高于2000英尺

TAF: SBFL 160900Z 1612/1712 20007KT 9999 SCT035 TX20/1618Z TN15/1708Z BECMG 1612/1614 16008KT SCT040 BECMG 1700/1702 20005KT BKN020 RMK PDJ

超过4000个机场的气象观测和天气预报(METAR&TAF报告)。

可查询的气象台以黄色和红色小点在地图上表示。

将鼠标移到小点上方,可查看气象台名称。

然后点击查看天气观测和预报。

如需切换地图:点击带黑十字的绿色按钮放大地图;点击带横线的绿色按钮缩小地图;或者点击绿色箭头查看邻近地区的地图。


METAR-TAF: